Time;durP1;ratioP1;P1;durP2;ratioP2;P2;SDS_P1;SDS_P2;PMS_P1;PMS_P2;Temp;Humidity;BMP_temperature;BMP_pressure;BME280_temperature;BME280_humidity;BME280_pressure;Samples;Min_cycle;Max_cycle;Signal;HPM_P1;HPM_P2
2021/11/02 00:00:34;;;;;;;2.97;1.70;;;8.30;86.50;;;6.73;99.22;94751.69;5022759;28;20033;-62
2021/11/02 00:03:00;;;;;;;2.00;1.40;;;8.30;86.60;;;6.71;99.20;94751.88;5009347;28;20036;-62
2021/11/02 00:05:26;;;;;;;2.25;1.52;;;8.30;86.30;;;6.73;98.71;94749.88;4993508;28;20065;-63
2021/11/02 00:07:52;;;;;;;2.95;1.67;;;8.40;86.30;;;6.72;99.32;94750.06;4985002;28;20533;-63
2021/11/02 00:10:18;;;;;;;1.83;1.40;;;8.40;86.30;;;6.73;99.28;94751.69;4990879;28;20117;-63
2021/11/02 00:12:43;;;;;;;3.03;1.60;;;8.40;86.10;;;6.73;99.02;94747.25;4997012;28;20045;-63
2021/11/02 00:15:09;;;;;;;3.10;1.60;;;8.40;86.10;;;6.74;98.80;94743.66;5006258;28;20041;-64
2021/11/02 00:17:38;;;;;;;3.03;1.75;;;8.40;86.00;;;6.76;99.35;94746.88;4993124;28;20038;-64
2021/11/02 00:20:06;;;;;;;3.55;1.40;;;8.50;86.10;;;6.79;99.53;94747.47;5017099;28;20069;-64
2021/11/02 00:22:34;;;;;;;2.55;1.13;;;8.50;85.90;;;6.81;99.27;94745.50;5013997;28;20139;-63
2021/11/02 00:25:04;;;;;;;2.22;1.20;;;8.60;86.00;;;6.81;99.48;94745.50;5000406;28;20046;-63
2021/11/02 00:27:35;;;;;;;1.77;0.90;;;8.50;85.70;;;6.80;98.71;94749.09;5005969;28;20516;-63
2021/11/02 00:30:01;;;;;;;2.58;1.13;;;8.50;86.00;;;6.81;98.87;94748.09;4989946;28;20026;-63
2021/11/02 00:32:27;;;;;;;1.42;1.00;;;8.50;85.90;;;6.83;99.06;94751.31;5000835;28;20084;-63
2021/11/02 00:34:53;;;;;;;3.58;1.00;;;8.60;86.10;;;6.83;99.09;94751.31;4976553;28;20030;-63
2021/11/02 00:37:19;;;;;;;1.85;0.98;;;8.60;85.90;;;6.86;99.81;94750.91;4992996;28;20037;-63
2021/11/02 00:39:44;;;;;;;1.15;0.88;;;8.60;85.70;;;6.87;99.55;94748.09;5029360;28;20034;-64
2021/11/02 00:42:10;;;;;;;1.85;1.00;;;8.60;85.60;;;6.84;98.97;94742.47;5013225;28;20039;-63
2021/11/02 00:44:37;;;;;;;3.83;1.00;;;8.50;85.80;;;6.84;98.92;94743.28;4993962;28;20164;-64
2021/11/02 00:47:05;;;;;;;3.15;0.90;;;8.50;85.90;;;6.84;98.89;94737.25;5010891;28;20029;-63
2021/11/02 00:49:31;;;;;;;1.27;0.70;;;8.50;85.80;;;6.84;99.14;94732.81;4991761;28;20497;-64
2021/11/02 00:51:57;;;;;;;1.45;0.98;;;8.50;85.70;;;6.84;99.46;94732.81;5003125;28;20619;-63
2021/11/02 00:54:23;;;;;;;1.85;1.05;;;8.50;85.90;;;6.85;99.59;94738.84;5004523;28;20053;-64
2021/11/02 00:56:49;;;;;;;1.45;0.90;;;8.60;85.90;;;6.85;99.12;94733.63;4988961;28;20030;-63
2021/11/02 00:59:14;;;;;;;1.20;0.90;;;8.60;85.80;;;6.84;99.37;94732.03;4998044;28;20068;-63
2021/11/02 01:01:40;;;;;;;1.52;0.93;;;8.60;85.90;;;6.85;99.00;94733.63;5015618;28;20033;-64
2021/11/02 01:04:06;;;;;;;1.75;0.90;;;8.60;85.90;;;6.86;99.21;94730.00;4986541;28;20042;-63
2021/11/02 01:06:33;;;;;;;3.60;0.95;;;8.50;86.00;;;6.85;99.16;94731.00;4986061;28;20034;-64
2021/11/02 01:08:59;;;;;;;2.35;0.90;;;8.60;85.80;;;6.84;99.46;94732.03;5005734;28;20038;-64
2021/11/02 01:11:25;;;;;;;3.35;1.48;;;8.50;85.90;;;6.80;99.18;94728.19;5022158;28;20044;-64
2021/11/02 01:13:51;;;;;;;2.05;1.00;;;8.40;86.30;;;6.78;99.36;94723.16;5007228;28;20354;-63
2021/11/02 01:16:19;;;;;;;1.40;1.00;;;8.40;86.20;;;6.75;99.16;94724.34;5012975;28;20052;-63
2021/11/02 01:18:45;;;;;;;2.42;1.10;;;8.30;86.30;;;6.72;99.52;94716.91;5038581;28;20041;-64
2021/11/02 01:21:11;;;;;;;1.77;0.90;;;8.40;86.40;;;6.70;99.77;94721.53;5018848;28;20061;-63
2021/11/02 01:23:37;;;;;;;1.50;0.82;;;8.20;86.60;;;6.67;99.92;94708.88;5010091;28;20038;-63
2021/11/02 01:26:02;;;;;;;1.60;1.13;;;8.20;86.70;;;6.65;99.49;94710.06;5021285;28;20111;-63
2021/11/02 01:28:28;;;;;;;1.55;1.05;;;8.20;86.90;;;6.62;100.00;94703.44;4989075;28;20076;-64
2021/11/02 01:30:54;;;;;;;3.60;1.30;;;8.20;86.80;;;6.61;99.81;94699.22;4989434;28;20057;-62
2021/11/02 01:33:20;;;;;;;3.10;1.17;;;8.20;86.80;;;6.61;99.72;94699.22;4999699;28;20045;-63
2021/11/02 01:35:46;;;;;;;1.63;1.00;;;8.20;86.80;;;6.62;99.98;94703.44;5027694;23;20053;-68
2021/11/02 01:38:14;;;;;;;1.40;0.90;;;8.20;86.80;;;6.62;100.00;94698.22;5017323;28;20072;-68
2021/11/02 01:40:40;;;;;;;2.00;1.13;;;8.20;86.80;;;6.62;100.00;94698.22;5007024;28;20038;-67
2021/11/02 01:43:05;;;;;;;1.55;0.88;;;8.30;86.80;;;6.61;99.97;94696.63;5008878;28;20057;-68
2021/11/02 01:45:31;;;;;;;1.65;1.20;;;8.20;86.90;;;6.58;100.00;94690.97;4994654;28;20034;-68
2021/11/02 01:47:57;;;;;;;1.80;1.10;;;8.20;86.70;;;6.58;100.00;94698.81;4976153;28;20089;-68
2021/11/02 01:50:23;;;;;;;2.50;1.40;;;8.20;86.70;;;6.58;100.00;94697.00;4996019;28;20042;-68
2021/11/02 01:52:49;;;;;;;1.75;1.23;;;8.20;86.70;;;6.53;99.96;94698.59;4980720;28;20034;-67
2021/11/02 01:55:15;;;;;;;2.65;1.50;;;8.10;86.90;;;6.51;100.00;94690.94;4973162;28;20065;-67
2021/11/02 01:57:42;;;;;;;1.88;1.40;;;8.10;87.10;;;6.51;100.00;94701.41;4986741;28;20568;-67
2021/11/02 02:00:11;;;;;;;2.05;1.35;;;8.10;87.20;;;6.51;100.00;94705.81;4972732;28;20026;-67
2021/11/02 02:02:56;;;;;;;1.85;1.15;;;8.10;87.20;;;6.46;100.00;94698.59;5003136;28;20030;-68
2021/11/02 02:05:39;;;;;;;1.80;1.40;;;8.00;87.50;;;6.42;100.00;94697.38;4970378;28;20125;-67
2021/11/02 02:08:35;;;;;;;2.42;1.60;;;8.00;87.60;;;6.42;100.00;94692.94;4969393;28;20050;-67
2021/11/02 02:11:49;;;;;;;7.53;1.95;;;8.10;87.60;;;6.44;100.00;94700.59;4973007;28;20042;-67
2021/11/02 02:15:01;;;;;;;4.75;1.75;;;8.10;87.30;;;6.44;100.00;94687.53;4949537;28;20116;-67
2021/11/02 02:17:54;;;;;;;3.65;1.90;;;8.10;86.90;;;6.39;100.00;94692.56;4984267;28;20074;-68
2021/11/02 02:20:48;;;;;;;4.68;2.00;;;8.10;86.90;;;6.41;100.00;94690.53;4973734;28;20046;-67
2021/11/02 02:24:00;;;;;;;3.47;1.80;;;8.20;86.70;;;6.40;100.00;94678.50;5001761;28;20029;-68
2021/11/02 02:26:35;;;;;;;5.15;2.10;;;8.10;86.60;;;6.37;100.00;94678.88;4985554;28;20429;-67
2021/11/02 02:29:03;;;;;;;2.60;2.03;;;8.10;86.60;;;6.35;100.00;94673.06;4985113;28;20037;-68
2021/11/02 02:31:32;;;;;;;4.13;2.42;;;8.10;86.60;;;6.31;100.00;94674.44;4985003;28;20060;-67
2021/11/02 02:33:58;;;;;;;3.08;2.10;;;8.00;86.90;;;6.30;100.00;94678.03;4989515;28;20037;-68
2021/11/02 02:36:25;;;;;;;3.35;2.35;;;8.00;86.80;;;6.28;100.00;94680.06;4971155;28;20026;-66
2021/11/02 02:38:50;;;;;;;3.08;2.22;;;8.00;86.80;;;6.25;100.00;94683.06;4988644;28;20125;-68
2021/11/02 02:41:20;;;;;;;2.97;2.40;;;8.00;86.80;;;6.25;100.00;94685.66;4956923;28;20026;-68
2021/11/02 02:43:46;;;;;;;3.28;2.10;;;8.00;86.70;;;6.23;100.00;94680.66;4954822;28;20057;-67
2021/11/02 02:46:12;;;;;;;3.28;2.20;;;7.90;86.60;;;6.22;100.00;94675.63;4952999;28;20449;-67
2021/11/02 02:48:37;;;;;;;3.33;2.20;;;7.90;86.60;;;6.22;100.00;94675.63;4970325;28;20521;-68
2021/11/02 02:51:03;;;;;;;2.35;2.15;;;8.00;86.60;;;6.21;100.00;94680.03;4978789;28;20030;-67
2021/11/02 02:53:29;;;;;;;3.15;2.15;;;8.00;86.40;;;6.20;100.00;94672.41;4970904;28;20057;-68
2021/11/02 02:55:59;;;;;;;3.38;2.15;;;8.00;86.30;;;6.18;100.00;94677.81;4972316;28;20032;-68
2021/11/02 02:58:28;;;;;;;3.60;2.33;;;7.90;86.30;;;6.17;100.00;94678.81;4971613;28;20704;-68
2021/11/02 03:00:54;;;;;;;3.03;2.35;;;7.90;86.30;;;6.15;100.00;94686.06;4963736;28;20033;-68
2021/11/02 03:03:21;;;;;;;4.43;2.00;;;7.90;86.20;;;6.14;100.00;94680.03;4952375;28;20038;-68
2021/11/02 03:05:47;;;;;;;5.43;2.08;;;7.90;86.20;;;6.13;100.00;94677.63;4972131;28;20042;-68
2021/11/02 03:08:13;;;;;;;3.53;2.00;;;7.90;86.10;;;6.10;100.00;94676.19;5006632;28;20030;-68
2021/11/02 03:10:39;;;;;;;2.92;1.95;;;7.90;86.20;;;6.12;99.98;94670.78;4970186;28;20054;-67
2021/11/02 03:13:08;;;;;;;2.90;2.05;;;7.80;86.30;;;6.10;100.00;94673.56;4983649;28;20117;-68
2021/11/02 03:15:57;;;;;;;2.30;1.90;;;7.90;86.00;;;6.10;100.00;94677.97;4955304;28;20034;-67
2021/11/02 03:49:14;;;;;;;4.07;1.90;;;7.50;86.20;;;5.80;99.29;94664.41;4974459;28;20036;-65
2021/11/02 03:51:51;;;;;;;3.25;2.03;;;7.50;86.10;;;5.77;99.25;94664.78;4988468;28;20581;-67
2021/11/02 04:24:30;;;;;;;2.85;1.80;;;7.30;85.90;;;5.53;99.51;94684.34;4967519;28;20089;-67
2021/11/02 04:27:17;;;;;;;2.50;1.55;;;7.40;85.70;;;5.51;98.82;94668.88;4986199;28;20594;-67
2021/11/02 04:30:06;;;;;;;2.22;1.70;;;7.40;85.50;;;5.52;98.44;94675.72;4978377;28;20399;-67
2021/11/02 05:13:24;;;;;;;2.80;1.70;;;6.90;85.80;;;5.15;98.34;94689.09;5007349;28;20041;-68
2021/11/02 06:00:15;;;;;;;10.57;6.30;;;6.80;85.00;;;5.03;97.73;94707.06;4976192;28;20044;-70
2021/11/02 06:02:49;;;;;;;13.95;8.85;;;6.90;84.90;;;5.02;97.75;94707.25;4989197;28;20536;-70
2021/11/02 06:08:02;;;;;;;8.18;4.82;;;6.90;85.20;;;5.02;97.99;94705.47;4989135;28;20402;-70
2021/11/02 06:30:01;;;;;;;5.18;1.70;;;7.00;84.80;;;5.19;98.83;94716.41;4978422;28;20077;-72
2021/11/02 06:32:30;;;;;;;3.15;1.77;;;7.10;85.10;;;5.20;98.21;94712.78;4989115;28;20034;-72
2021/11/02 06:37:52;;;;;;;3.88;2.08;;;7.00;84.80;;;5.20;98.44;94711.03;4975743;28;20049;-69
2021/11/02 06:48:21;;;;;;;5.85;4.63;;;7.10;84.90;;;5.33;98.94;94723.31;4973542;28;20521;-69
2021/11/02 06:51:15;;;;;;;10.52;5.80;;;7.20;85.00;;;5.36;98.01;94728.16;4974022;28;20034;-68
2021/11/02 06:57:14;;;;;;;3.97;1.95;;;7.20;84.90;;;5.42;98.36;94719.56;4987543;28;20038;-72
2021/11/02 07:19:53;;;;;;;3.33;1.90;;;8.00;84.30;;;5.94;99.23;94736.56;4982487;28;20031;-67
2021/11/02 07:22:31;;;;;;;6.20;2.95;;;8.10;84.20;;;5.93;98.26;94723.72;4958957;28;20026;-71
2021/11/02 08:46:40;;;;;;;1.63;1.10;;;14.90;61.20;;;10.78;87.47;94722.97;4974816;28;20088;-71
2021/11/02 08:49:06;;;;;;;2.00;0.80;;;15.50;60.00;;;11.11;85.74;94720.69;4988515;28;20031;-71
2021/11/02 08:51:32;;;;;;;1.20;0.60;;;15.60;57.70;;;11.32;83.84;94727.25;4984892;28;20035;-73
2021/11/02 08:53:57;;;;;;;3.30;0.80;;;15.60;56.60;;;11.57;82.97;94724.41;4985202;28;20638;-70
2021/11/02 08:56:23;;;;;;;1.92;0.68;;;16.10;56.40;;;11.80;81.46;94728.91;4971152;28;20105;-70
2021/11/02 08:58:52;;;;;;;3.10;0.90;;;16.50;55.00;;;12.03;79.65;94734.16;4989935;28;20117;-70
2021/11/02 09:01:20;;;;;;;2.42;0.85;;;16.90;52.90;;;12.24;79.94;94725.66;4975085;28;20454;-73
2021/11/02 09:03:49;;;;;;;1.52;0.82;;;17.40;52.70;;;12.41;79.35;94720.44;4960233;28;20049;-74
2021/11/02 09:06:16;;;;;;;1.77;0.75;;;17.70;50.80;;;12.60;78.00;94713.16;4958952;28;20038;-71
2021/11/02 09:08:45;;;;;;;1.77;0.70;;;18.10;49.60;;;12.74;76.20;94713.69;4957443;28;20161;-75
2021/11/02 09:11:13;;;;;;;3.10;0.77;;;18.30;49.30;;;12.82;76.25;94721.22;4990509;28;20109;-73
2021/11/02 09:13:41;;;;;;;1.30;0.68;;;18.10;48.30;;;12.84;76.50;94708.56;4989417;28;20134;-72
2021/11/02 09:16:07;;;;;;;3.22;0.60;;;17.60;50.10;;;12.81;76.21;94709.84;4988966;28;20379;-70
2021/11/02 09:18:33;;;;;;;3.67;0.60;;;16.90;50.80;;;12.74;74.38;94703.94;4954506;28;20034;-73
2021/11/02 09:20:58;;;;;;;3.63;0.60;;;16.20;52.80;;;12.63;73.97;94717.94;4974002;28;20026;-69
2021/11/02 09:23:26;;;;;;;1.92;0.70;;;15.70;55.20;;;12.51;73.70;94711.94;5006417;28;20621;-70
2021/11/02 09:25:53;;;;;;;1.42;0.60;;;15.30;56.80;;;12.40;74.75;94712.75;4989957;28;20049;-71
2021/11/02 09:28:19;;;;;;;1.58;0.52;;;15.00;58.00;;;12.27;74.27;94714.63;4990638;28;20030;-71
2021/11/02 09:30:45;;;;;;;2.47;0.60;;;14.70;58.10;;;12.11;72.86;94719.81;4989576;28;20398;-70
2021/11/02 09:33:11;;;;;;;1.63;0.60;;;14.00;58.00;;;11.90;72.61;94719.38;4990691;28;20510;-70
2021/11/02 09:35:37;;;;;;;2.83;0.85;;;13.80;59.70;;;11.78;72.59;94715.97;4990564;28;20034;-70
2021/11/02 09:38:22;;;;;;;3.63;0.63;;;13.80;60.00;;;11.65;71.33;94718.78;5005300;28;20494;-70
2021/11/02 09:41:30;;;;;;;3.53;0.55;;;13.60;60.90;;;11.55;71.15;94722.00;4976998;28;20042;-70
2021/11/02 09:44:17;;;;;;;1.63;0.60;;;13.60;60.60;;;11.42;72.16;94722.22;4991299;28;20042;-70
2021/11/02 09:47:14;;;;;;;2.55;0.88;;;13.50;62.20;;;11.38;71.96;94715.81;4990611;28;20034;-72
2021/11/02 09:50:15;;;;;;;2.40;0.57;;;13.60;61.80;;;11.37;72.62;94708.13;4991057;28;20050;-73
2021/11/02 09:53:20;;;;;;;2.45;0.50;;;13.60;62.30;;;11.33;71.52;94713.84;4988329;28;20467;-71
2021/11/02 09:55:53;;;;;;;1.20;0.55;;;13.40;61.50;;;11.32;72.72;94711.47;4977871;28;20133;-71
2021/11/02 09:58:31;;;;;;;2.78;0.68;;;13.50;61.70;;;11.33;72.49;94711.22;4990956;28;20031;-72
2021/11/02 10:01:35;;;;;;;6.25;0.60;;;13.60;61.80;;;11.39;72.45;94706.06;5006181;28;20058;-70
2021/11/02 10:04:27;;;;;;;1.75;0.40;;;13.80;61.20;;;11.44;72.12;94707.00;4969116;28;20038;-74
2021/11/02 10:07:12;;;;;;;2.95;0.60;;;13.90;59.40;;;11.48;72.06;94702.06;4989994;28;20514;-71
2021/11/02 10:09:54;;;;;;;3.10;0.70;;;13.80;59.90;;;11.51;72.26;94705.03;4991118;28;20046;-72
2021/11/02 10:12:22;;;;;;;1.77;0.65;;;13.70;60.10;;;11.54;72.29;94695.88;4990008;28;20047;-66
2021/11/02 10:15:02;;;;;;;2.88;0.70;;;13.80;61.10;;;11.61;72.31;94691.31;4989972;28;20034;-66
2021/11/02 10:18:07;;;;;;;2.17;0.80;;;13.90;61.50;;;11.69;70.09;94695.44;4974227;28;20038;-72
2021/11/02 10:20:36;;;;;;;2.95;0.70;;;14.00;59.10;;;11.73;72.12;94686.03;5005050;28;20086;-73
2021/11/02 10:23:42;;;;;;;2.58;0.60;;;14.10;59.30;;;11.79;69.28;94685.97;4972281;28;20455;-72
2021/11/02 10:26:14;;;;;;;3.10;0.80;;;14.10;58.70;;;11.83;70.69;94696.84;4975345;28;20053;-71
2021/11/02 10:29:21;;;;;;;2.30;0.50;;;14.40;58.00;;;11.96;68.58;94691.31;4993981;28;20062;-71
2021/11/02 10:31:53;;;;;;;1.92;0.60;;;14.60;57.10;;;12.03;70.12;94683.28;4982496;28;20156;-72
2021/11/02 10:34:33;;;;;;;4.10;0.55;;;14.60;56.30;;;12.15;68.41;94679.56;4989303;28;20045;-71
2021/11/02 10:37:40;;;;;;;2.38;0.68;;;14.70;55.30;;;12.24;67.26;94678.19;4989931;28;20133;-71
2021/11/02 10:40:31;;;;;;;1.83;0.70;;;14.70;56.30;;;12.37;67.14;94681.59;4990092;28;20038;-72
2021/11/02 10:43:24;;;;;;;2.53;0.70;;;14.90;54.80;;;12.47;66.48;94672.03;4990497;28;20510;-71
2021/11/02 10:46:02;;;;;;;2.67;0.60;;;14.90;55.70;;;12.55;66.18;94684.03;4990739;28;20041;-73
2021/11/02 10:48:48;;;;;;;5.30;2.30;;;15.10;55.00;;;12.67;64.64;94682.16;4985066;28;20050;-68
2021/11/02 10:51:26;;;;;;;1.92;0.93;;;15.40;52.80;;;12.79;63.17;94682.09;5004521;28;20038;-68
2021/11/02 10:54:36;;;;;;;1.88;0.75;;;15.70;51.50;;;12.95;62.29;94683.19;4987365;28;20499;-71
2021/11/02 10:57:47;;;;;;;3.63;0.52;;;16.10;49.70;;;13.18;63.43;94681.22;4968859;28;20026;-71
2021/11/02 11:00:13;;;;;;;3.97;0.70;;;16.90;48.80;;;13.40;65.98;94683.97;4970095;28;20039;-72
2021/11/02 11:02:38;;;;;;;2.33;0.60;;;17.60;46.80;;;13.67;66.12;94676.16;4988866;28;20043;-72
2021/11/02 11:05:07;;;;;;;2.88;0.70;;;18.10;45.10;;;14.02;64.56;94678.47;4988335;28;20518;-72
2021/11/02 11:07:41;;;;;;;2.63;0.70;;;19.20;43.20;;;14.50;61.54;94682.28;4988532;28;20092;-72
2021/11/02 11:10:12;;;;;;;2.25;0.57;;;21.30;40.00;;;15.07;60.56;94678.34;4988012;28;20122;-72
2021/11/02 11:12:51;;;;;;;1.67;0.55;;;23.60;34.00;;;15.84;59.00;94670.75;5004846;28;20472;-72
2021/11/02 11:15:17;;;;;;;1.35;0.45;;;26.10;30.50;;;16.69;66.37;94665.28;4972385;28;20125;-72
2021/11/02 11:17:53;;;;;;;2.72;0.60;;;28.20;27.60;;;17.51;58.73;94674.13;4972652;28;20506;-72
2021/11/02 11:20:21;;;;;;;2.30;0.50;;;29.40;26.00;;;18.30;63.56;94674.25;4971135;28;20097;-72
2021/11/02 11:22:49;;;;;;;2.38;0.50;;;29.20;25.00;;;19.10;58.77;94657.38;4987811;28;20038;-72
2021/11/02 11:25:24;;;;;;;2.95;0.50;;;31.50;23.70;;;19.72;59.32;94669.19;4987437;28;20085;-72
2021/11/02 11:27:55;;;;;;;1.55;0.20;;;30.00;23.90;;;19.78;56.63;94668.06;4986873;28;20034;-73
2021/11/02 11:30:31;;;;;;;1.85;0.60;;;26.40;27.70;;;19.38;55.39;94663.81;4986770;28;20439;-71
2021/11/02 11:32:57;;;;;;;2.50;0.50;;;23.50;32.00;;;18.81;55.24;94665.28;4972158;28;20045;-71
2021/11/02 11:35:23;;;;;;;2.97;0.50;;;21.90;33.80;;;18.20;53.77;94670.84;4971349;28;20042;-71
2021/11/02 11:37:52;;;;;;;1.55;0.50;;;20.70;36.90;;;17.70;52.00;94665.38;4972399;28;20065;-72
2021/11/02 11:40:21;;;;;;;1.85;0.50;;;20.30;38.20;;;17.34;52.62;94669.09;4971339;28;20570;-72
2021/11/02 11:42:53;;;;;;;1.45;0.52;;;19.60;39.70;;;16.91;51.40;94668.50;5004304;28;20057;-72
2021/11/02 11:45:22;;;;;;;1.75;0.50;;;18.90;40.70;;;16.46;53.17;94663.84;5003749;28;20042;-71
2021/11/02 11:48:07;;;;;;;2.67;0.70;;;18.40;42.50;;;16.10;51.23;94670.88;4974063;28;20081;-71
2021/11/02 11:50:36;;;;;;;2.72;0.80;;;18.10;43.20;;;15.71;54.11;94663.22;4972836;28;20062;-71
2021/11/02 11:53:03;;;;;;;2.13;0.52;;;17.50;44.50;;;15.35;53.89;94679.88;4972646;28;20117;-72
2021/11/02 11:55:33;;;;;;;3.00;0.90;;;16.70;45.00;;;14.92;54.25;94686.94;4955813;28;20038;-72
2021/11/02 11:58:17;;;;;;;2.95;0.88;;;16.40;47.50;;;14.42;57.09;94687.97;4989438;28;20038;-73
2021/11/02 12:00:51;;;;;;;3.55;0.80;;;15.70;50.50;;;14.01;56.93;94687.44;5001997;28;20034;-73
2021/11/02 12:03:48;;;;;;;5.43;0.68;;;15.20;52.50;;;13.59;57.94;94692.44;4987715;28;20042;-73
2021/11/02 12:06:34;;;;;;;2.47;0.70;;;14.90;53.20;;;13.19;58.04;94687.31;4993773;28;20117;-75
2021/11/02 12:09:15;;;;;;;3.78;0.73;;;14.60;52.80;;;13.07;60.57;94689.19;4981933;28;20042;-69
2021/11/02 12:11:41;;;;;;;6.45;1.85;;;14.80;54.20;;;12.96;59.65;94692.69;4972626;28;20042;-69
2021/11/02 12:14:12;;;;;;;2.80;1.13;;;14.60;54.60;;;12.78;60.76;94691.84;4969851;28;20029;-71
2021/11/02 12:16:40;;;;;;;2.63;0.90;;;14.40;55.80;;;12.60;61.57;94696.53;4987351;28;20536;-69
2021/11/02 12:19:34;;;;;;;3.83;1.50;;;14.10;56.30;;;12.37;63.36;94690.28;4986650;28;20161;-69
2021/11/02 12:22:07;;;;;;;2.28;1.10;;;13.90;57.90;;;12.17;62.80;94706.50;4981612;28;20030;-69
2021/11/02 12:24:38;;;;;;;4.75;1.17;;;13.60;59.30;;;11.85;63.29;94705.31;5003104;28;20495;-69
2021/11/02 12:27:20;;;;;;;2.97;0.65;;;13.10;60.90;;;11.65;66.07;94700.34;5004378;28;20462;-70
2021/11/02 12:29:47;;;;;;;3.08;0.80;;;13.10;61.70;;;11.49;65.72;94704.47;4964495;28;20035;-67
2021/11/02 12:32:15;;;;;;;2.70;0.85;;;13.00;61.50;;;11.38;66.01;94700.00;4970771;28;20058;-70
2021/11/02 12:34:45;;;;;;;2.90;0.85;;;12.80;61.90;;;11.35;67.05;94700.47;4959538;28;20041;-69
2021/11/02 12:37:12;;;;;;;3.70;0.98;;;13.10;62.00;;;11.36;66.46;94704.69;4992161;28;20042;-68
2021/11/02 12:39:38;;;;;;;2.17;0.85;;;13.10;61.20;;;11.39;67.37;94706.06;4975472;28;20121;-69
2021/11/02 12:42:04;;;;;;;4.93;1.13;;;13.50;61.20;;;11.49;66.93;94712.38;5008229;28;20030;-67
2021/11/02 12:44:35;;;;;;;3.13;1.15;;;13.60;60.00;;;11.51;67.92;94705.03;4971819;28;20039;-69
2021/11/02 12:47:04;;;;;;;4.03;1.50;;;13.60;60.20;;;11.56;67.00;94702.53;4974912;28;20517;-72
2021/11/02 12:49:54;;;;;;;2.63;1.05;;;13.50;60.20;;;11.52;67.18;94705.84;4975394;28;20038;-71
2021/11/02 12:52:24;;;;;;;2.57;0.83;;;13.40;60.70;;;11.50;67.84;94703.44;4975386;28;20144;-69
2021/11/02 12:55:14;;;;;;;2.78;0.70;;;13.40;61.00;;;11.54;66.29;94707.25;4951549;28;20279;-69
2021/11/02 12:57:48;;;;;;;1.95;0.70;;;13.30;59.40;;;11.55;67.02;94695.69;4956326;28;20046;-70
2021/11/02 13:00:18;;;;;;;2.60;0.70;;;13.50;60.00;;;11.63;67.47;94703.22;5001172;28;20414;-72
2021/11/02 13:02:50;;;;;;;1.08;0.50;;;13.80;59.50;;;11.67;66.34;94703.56;4990478;28;20030;-71
2021/11/02 13:05:24;;;;;;;2.72;0.70;;;13.60;57.00;;;11.62;66.43;94701.63;4973899;28;20085;-73
2021/11/02 13:08:07;;;;;;;0.70;0.40;;;13.40;58.80;;;11.61;66.22;94688.69;4975585;28;20058;-73
2021/11/02 13:10:33;;;;;;;1.48;0.32;;;13.40;59.60;;;11.53;66.83;94696.91;4975025;28;20065;-73
2021/11/02 13:13:16;;;;;;;1.38;0.30;;;13.40;59.30;;;11.52;65.06;94696.09;4975266;28;20037;-73
2021/11/02 13:15:55;;;;;;;1.35;0.30;;;13.10;58.00;;;11.41;65.04;94699.56;4975648;28;20038;-74
2021/11/02 13:18:35;;;;;;;2.47;0.52;;;13.00;58.40;;;11.36;66.15;94702.06;4991011;28;20116;-74
2021/11/02 13:21:33;;;;;;;0.30;0.20;;;12.90;59.70;;;11.27;65.48;94704.22;5003428;28;20038;-74
2021/11/02 13:24:14;;;;;;;1.02;0.50;;;12.80;60.10;;;11.21;66.62;94701.69;4988448;28;20065;-68
2021/11/02 13:26:48;;;;;;;0.93;0.43;;;12.80;60.20;;;11.19;66.60;94695.88;4988121;28;20054;-71
2021/11/02 13:29:15;;;;;;;1.10;0.50;;;12.80;60.40;;;11.19;66.80;94695.88;4990424;28;20031;-72
2021/11/02 13:31:42;;;;;;;1.77;0.60;;;12.90;60.30;;;11.15;66.48;94692.09;4974814;28;20514;-72
2021/11/02 13:34:14;;;;;;;1.00;0.70;;;12.90;61.20;;;11.18;67.14;94691.63;4957971;28;20065;-72
2021/11/02 13:36:39;;;;;;;2.00;0.82;;;13.10;60.50;;;11.20;67.73;94692.19;4974618;28;20030;-70
2021/11/02 13:39:13;;;;;;;1.65;0.70;;;13.30;60.40;;;11.27;67.73;94687.63;4973990;28;20072;-68
2021/11/02 13:41:47;;;;;;;0.90;0.47;;;13.50;59.60;;;11.37;67.20;94692.34;4989084;28;20042;-71
2021/11/02 13:44:15;;;;;;;0.57;0.47;;;13.70;57.10;;;11.55;67.15;94703.56;5004337;28;20121;-70
2021/11/02 13:46:52;;;;;;;1.50;0.77;;;14.40;55.40;;;11.85;65.35;94697.41;4989417;28;20034;-72
2021/11/02 13:49:18;;;;;;;1.85;0.85;;;15.00;53.50;;;12.23;66.27;94686.34;4987174;28;20057;-69
2021/11/02 13:51:45;;;;;;;0.93;0.52;;;16.10;49.40;;;12.74;64.60;94689.94;4989262;28;20399;-69
2021/11/02 13:54:11;;;;;;;1.58;0.70;;;17.30;46.70;;;13.35;64.33;94694.44;4973204;28;20447;-73
2021/11/02 13:56:43;;;;;;;4.53;0.80;;;18.60;44.30;;;14.17;61.05;94687.66;4989929;28;20114;-69
2021/11/02 13:59:09;;;;;;;2.63;0.60;;;20.40;40.30;;;14.65;63.31;94681.63;4973328;28;20034;-68
2021/11/02 14:01:56;;;;;;;1.52;0.57;;;18.90;41.40;;;14.77;57.00;94687.59;4990267;28;20382;-69
2021/11/02 14:04:36;;;;;;;1.02;0.43;;;18.10;44.00;;;14.63;57.84;94683.72;4980013;28;20418;-68
2021/11/02 14:07:22;;;;;;;1.20;0.47;;;17.10;46.30;;;14.66;56.16;94681.38;4973279;28;20414;-71
2021/11/02 14:09:57;;;;;;;0.73;0.40;;;17.80;44.30;;;14.90;57.29;94691.66;4989842;28;20042;-69
2021/11/02 14:12:31;;;;;;;0.95;0.43;;;18.60;43.10;;;15.41;55.78;94684.19;4973077;28;20034;-72
2021/11/02 14:15:11;;;;;;;0.55;0.40;;;19.20;41.20;;;15.84;54.11;94684.00;4977796;28;20035;-69
2021/11/02 14:17:45;;;;;;;1.90;0.55;;;19.40;40.40;;;16.17;56.93;94682.84;4989964;28;20093;-68
2021/11/02 14:20:32;;;;;;;1.08;0.40;;;19.10;39.80;;;16.42;52.87;94684.81;4988039;28;20095;-68
2021/11/02 14:22:59;;;;;;;0.70;0.40;;;19.10;41.00;;;16.74;56.47;94678.56;4989357;28;20398;-69
2021/11/02 14:25:35;;;;;;;1.38;0.32;;;19.20;39.40;;;16.95;50.83;94680.19;4989349;28;20042;-70
2021/11/02 14:28:01;;;;;;;1.10;0.70;;;19.10;39.80;;;16.94;54.60;94664.53;5001499;28;20045;-71
2021/11/02 14:30:33;;;;;;;1.35;0.70;;;18.60;40.90;;;16.99;51.20;94668.00;4973115;28;20113;-68
2021/11/02 14:33:25;;;;;;;0.98;0.50;;;18.20;41.10;;;16.85;49.55;94669.56;4991562;28;20053;-70
2021/11/02 14:36:04;;;;;;;1.02;0.22;;;18.00;42.20;;;16.33;51.03;94674.97;4978673;28;20026;-71
2021/11/02 14:38:46;;;;;;;0.30;0.30;;;17.10;43.40;;;15.85;49.81;94672.34;4954037;28;20038;-71
2021/11/02 14:41:34;;;;;;;2.40;0.90;;;16.60;45.10;;;15.50;51.30;94680.81;4927812;28;20034;-74
2021/11/02 14:44:18;;;;;;;2.03;0.60;;;16.50;46.10;;;14.97;51.70;94673.75;4970055;28;20070;-69
2021/11/02 14:46:47;;;;;;;1.83;0.90;;;15.60;47.40;;;14.56;53.06;94683.94;4984262;28;20034;-71
2021/11/02 14:49:37;;;;;;;1.65;0.95;;;15.40;48.00;;;14.24;53.43;94682.97;4971827;28;20078;-70
2021/11/02 14:52:07;;;;;;;2.50;0.73;;;15.40;48.70;;;13.98;53.69;94685.28;4972039;28;20022;-68
2021/11/02 14:54:47;;;;;;;0.82;0.30;;;15.20;49.40;;;13.64;54.48;94678.50;4972729;28;20034;-70
2021/11/02 14:57:19;;;;;;;1.00;0.50;;;14.60;50.20;;;13.44;54.80;94686.91;5004407;28;20037;-72
2021/11/02 15:00:00;;;;;;;0.98;0.50;;;14.60;51.50;;;13.11;55.29;94680.53;4989553;28;20038;-71
2021/11/02 15:02:42;;;;;;;0.50;0.30;;;14.00;51.70;;;12.77;55.90;94692.91;4988302;28;20042;-69
2021/11/02 15:05:14;;;;;;;3.42;0.40;;;13.80;52.90;;;12.45;56.43;94697.84;4966037;28;20031;-70
2021/11/02 15:07:42;;;;;;;0.68;0.55;;;13.30;54.00;;;12.20;57.30;94687.59;4988321;28;20031;-70
2021/11/02 15:10:11;;;;;;;1.83;0.40;;;13.30;54.60;;;12.01;57.41;94694.06;5004657;28;20333;-70
2021/11/02 15:12:37;;;;;;;0.90;0.50;;;13.20;55.20;;;11.78;58.08;94701.97;4989095;28;20081;-69
2021/11/02 15:15:03;;;;;;;1.20;0.60;;;12.80;55.40;;;11.55;58.54;94700.94;4988854;28;20045;-70
2021/11/02 15:17:29;;;;;;;1.10;0.50;;;12.60;56.50;;;11.36;59.60;94702.06;4989198;28;20034;-70
2021/11/02 15:19:55;;;;;;;1.90;0.90;;;12.50;57.30;;;11.17;59.93;94704.00;5001842;28;20101;-70
2021/11/02 15:22:22;;;;;;;1.88;1.05;;;12.40;57.50;;;11.01;60.08;94707.25;4962118;28;20593;-70
2021/11/02 15:25:00;;;;;;;2.10;1.23;;;12.20;58.00;;;10.83;61.01;94696.81;4985292;28;20510;-70
2021/11/02 15:27:28;;;;;;;1.52;0.80;;;12.00;58.50;;;10.70;60.65;94703.06;4971973;28;20038;-70
2021/11/02 15:30:05;;;;;;;2.67;1.70;;;12.00;59.30;;;10.59;62.27;94706.44;5004228;28;20039;-71
2021/11/02 15:32:45;;;;;;;1.50;1.08;;;11.90;59.60;;;10.48;63.76;94709.84;4988210;28;20440;-70
2021/11/02 15:35:16;;;;;;;0.90;0.50;;;11.80;60.30;;;10.36;63.49;94723.72;4953254;28;20045;-70